Station Historical Data
 
Daily Summary for September 24, 2017 Units:  English    Metric   Both
« Previous Day
Next Day »
Daily Weekly Monthly Yearly Custom
  Current: High: Low: Average:
Temperature: 58.8 °F 60.4 °F 38.3 °F 45.2 °F
Dew Point: 44.1 °F 46.7 °F 35.5 °F 39.6 °F
Humidity: 58% 91% 56% 82%
Wind Speed: 0.0mph 7.8mph 0.0mph 0.7mph
Wind Gust: 0.0mph 8.1mph - -
WindCalm - - SSE
Pressure: 30.16 in 30.21 in 30.15 in -
Precipitation: 0.00 in      
Historical Graphs
 
 
Tabular Data for September 24, 2017
Time Temperature Dew Point Pressure Wind Wind Speed Wind Gust Humidity Rainfall Rate (Hourly) solar Conditions
00:02 41.2 °F 38.2 °F 30.19 in Calm     89% 0.00 in 0.0 W/m2 OVC
00:07 40.8 °F 37.8 °F 30.19 in Calm     89% 0.00 in 0.0 W/m2 OVC
00:12 40.8 °F 37.8 °F 30.19 in Calm     89% 0.00 in 0.0 W/m2 OVC
00:17 40.1 °F 37.1 °F 30.18 in Calm     89% 0.00 in 0.0 W/m2 OVC
00:22 39.9 °F 36.9 °F 30.19 in Calm     89% 0.00 in 0.0 W/m2 OVC
00:27 39.6 °F 36.6 °F 30.19 in Calm     89% 0.00 in 0.0 W/m2 OVC
00:32 39.4 °F 36.4 °F 30.19 in Calm     89% 0.00 in 0.0 W/m2 OVC
00:37 39.0 °F 36.3 °F 30.19 in Calm     90% 0.00 in 0.0 W/m2 OVC
00:47 39.0 °F 36.3 °F 30.18 in Calm     90% 0.00 in 0.0 W/m2 OVC
00:52 38.8 °F 35.9 °F 30.19 in Calm     89% 0.00 in 0.0 W/m2 OVC
00:57 38.8 °F 35.9 °F 30.19 in Calm     89% 0.00 in 0.0 W/m2 OVC
01:02 38.8 °F 35.9 °F 30.19 in Calm     89% 0.00 in 0.0 W/m2 OVC
01:07 38.5 °F 35.5 °F 30.19 in Calm     89% 0.00 in 0.0 W/m2 OVC
01:12 38.5 °F 35.8 °F 30.18 in Calm     90% 0.00 in 0.0 W/m2 OVC
01:17 38.3 °F 35.6 °F 30.19 in Calm     90% 0.00 in 0.0 W/m2 OVC
01:22 38.3 °F 35.6 °F 30.19 in Calm     90% 0.00 in 0.0 W/m2 OVC
01:27 38.3 °F 35.6 °F 30.19 in Calm     90% 0.00 in 0.0 W/m2 OVC
01:32 38.5 °F 35.8 °F 30.19 in Calm     90% 0.00 in 0.0 W/m2 OVC
01:37 38.5 °F 35.8 °F 30.19 in Calm     90% 0.00 in 0.0 W/m2 OVC
01:42 38.5 °F 35.8 °F 30.19 in Calm     90% 0.00 in 0.0 W/m2 OVC
01:47 38.5 °F 35.8 °F 30.19 in Calm     90% 0.00 in 0.0 W/m2 OVC
01:52 38.5 °F 35.8 °F 30.19 in Calm     90% 0.00 in 0.0 W/m2 OVC
01:57 38.5 °F 35.8 °F 30.19 in Calm     90% 0.00 in 0.0 W/m2 OVC
02:02 38.5 °F 35.8 °F 30.20 in Calm     90% 0.00 in 0.0 W/m2 OVC
02:07 38.5 °F 35.8 °F 30.20 in Calm     90% 0.00 in 0.0 W/m2 OVC
02:12 38.5 °F 35.8 °F 30.19 in Calm     90% 0.00 in 0.0 W/m2 OVC
02:17 38.5 °F 35.8 °F 30.20 in Calm     90% 0.00 in 0.0 W/m2 OVC
02:22 38.7 °F 36.3 °F 30.19 in Calm     91% 0.00 in 0.0 W/m2 OVC
02:27 38.8 °F 36.4 °F 30.19 in Calm     91% 0.00 in 0.0 W/m2 OVC
02:32 38.8 °F 36.4 °F 30.19 in Calm     91% 0.00 in 0.0 W/m2 OVC
02:37 38.8 °F 36.4 °F 30.19 in Calm     91% 0.00 in 0.0 W/m2 OVC
02:42 38.8 °F 36.4 °F 30.19 in Calm     91% 0.00 in 0.0 W/m2 OVC
02:47 38.8 °F 36.4 °F 30.20 in Calm     91% 0.00 in 0.0 W/m2 OVC
02:52 38.8 °F 36.4 °F 30.19 in Calm     91% 0.00 in 0.0 W/m2 OVC
02:57 38.8 °F 36.4 °F 30.19 in Calm     91% 0.00 in 0.0 W/m2 OVC
03:02 38.8 °F 36.4 °F 30.19 in Calm     91% 0.00 in 0.0 W/m2 OVC
03:07 38.8 °F 36.4 °F 30.19 in Calm     91% 0.00 in 0.0 W/m2 OVC
03:12 38.8 °F 36.4 °F 30.19 in Calm     91% 0.00 in 0.0 W/m2 OVC
03:17 38.8 °F 36.4 °F 30.19 in Calm     91% 0.00 in 0.0 W/m2 OVC
03:27 38.8 °F 36.4 °F 30.20 in Calm     91% 0.00 in 0.0 W/m2 OVC
03:32 39.0 °F 36.6 °F 30.19 in Calm     91% 0.00 in 0.0 W/m2 OVC
03:37 39.0 °F 36.6 °F 30.20 in Calm     91% 0.00 in 0.0 W/m2 OVC
03:42 39.0 °F 36.6 °F 30.19 in Calm     91% 0.00 in 0.0 W/m2 OVC
03:47 39.0 °F 36.6 °F 30.19 in Calm     91% 0.00 in 0.0 W/m2 OVC
03:52 39.0 °F 36.6 °F 30.19 in Calm     91% 0.00 in 0.0 W/m2 OVC
03:57 39.0 °F 36.6 °F 30.19 in Calm     91% 0.00 in 0.0 W/m2 OVC
04:02 39.0 °F 36.6 °F 30.19 in Calm     91% 0.00 in 0.0 W/m2 BKN
04:07 39.0 °F 36.6 °F 30.19 in Calm     91% 0.00 in 0.0 W/m2 BKN
04:12 39.0 °F 36.6 °F 30.19 in Calm     91% 0.00 in 0.0 W/m2 BKN
04:13 39.0 °F 36.6 °F 30.19 in Calm     91% 0.00 in 0.0 W/m2 BKN
04:18 39.0 °F 36.6 °F 30.19 in Calm     91% 0.00 in 0.0 W/m2 BKN
04:23 39.0 °F 36.6 °F 30.19 in Calm     91% 0.00 in 0.0 W/m2 BKN
04:28 39.0 °F 36.6 °F 30.19 in Calm     91% 0.00 in 0.0 W/m2 BKN
04:33 39.0 °F 36.6 °F 30.19 in Calm     91% 0.00 in 0.0 W/m2 BKN
04:38 39.0 °F 36.6 °F 30.19 in Calm     91% 0.00 in 0.0 W/m2 BKN
04:43 39.0 °F 36.6 °F 30.19 in Calm     91% 0.00 in 0.0 W/m2 BKN
04:48 39.4 °F 37.0 °F 30.19 in Calm     91% 0.00 in 0.0 W/m2 BKN
04:53 39.4 °F 37.0 °F 30.19 in Calm     91% 0.00 in 0.0 W/m2 BKN
05:03 39.4 °F 37.0 °F 30.19 in Calm     91% 0.00 in 0.0 W/m2 OVC
05:08 39.4 °F 37.0 °F 30.19 in Calm     91% 0.00 in 0.0 W/m2 OVC
05:13 39.4 °F 37.0 °F 30.19 in Calm     91% 0.00 in 0.0 W/m2 OVC
05:18 39.4 °F 37.0 °F 30.19 in Calm     91% 0.00 in 0.0 W/m2 OVC
05:24 39.4 °F 37.0 °F 30.19 in Calm     91% 0.00 in 0.0 W/m2 OVC
05:28 39.4 °F 37.0 °F 30.19 in Calm     91% 0.00 in 0.0 W/m2 OVC
05:33 39.4 °F 37.0 °F 30.19 in Calm     91% 0.00 in 0.0 W/m2 OVC
05:38 39.4 °F 37.0 °F 30.19 in Calm     91% 0.00 in 0.0 W/m2 OVC
05:43 39.4 °F 37.0 °F 30.19 in Calm     91% 0.00 in 0.0 W/m2 OVC
05:48 39.4 °F 37.0 °F 30.19 in Calm     91% 0.00 in 0.0 W/m2 OVC
05:53 39.4 °F 37.0 °F 30.19 in Calm     91% 0.00 in 0.0 W/m2 OVC
05:58 39.4 °F 37.0 °F 30.19 in Calm     91% 0.00 in 0.0 W/m2 OVC
06:03 39.4 °F 37.0 °F 30.20 in Calm     91% 0.00 in 0.0 W/m2 CLR
06:08 39.4 °F 37.0 °F 30.19 in Calm     91% 0.00 in 0.0 W/m2 CLR
06:13 39.4 °F 37.0 °F 30.20 in Calm     91% 0.00 in 0.0 W/m2 CLR
06:18 39.4 °F 37.0 °F 30.20 in Calm     91% 0.00 in 0.0 W/m2 CLR
06:23 39.4 °F 37.0 °F 30.19 in Calm     91% 0.00 in 0.0 W/m2 CLR
06:28 39.4 °F 37.0 °F 30.20 in Calm     91% 0.00 in 0.0 W/m2 CLR
06:33 39.4 °F 37.0 °F 30.20 in Calm     91% 0.00 in 0.0 W/m2 CLR
06:38 39.4 °F 37.0 °F 30.20 in Calm     91% 0.00 in 0.0 W/m2 CLR
06:43 39.4 °F 37.0 °F 30.20 in Calm     91% 0.00 in 0.0 W/m2 CLR
06:48 39.6 °F 37.2 °F 30.20 in Calm     91% 0.00 in 0.0 W/m2 CLR
06:53 39.4 °F 37.0 °F 30.20 in Calm     91% 0.00 in 0.0 W/m2 CLR
06:58 39.6 °F 37.2 °F 30.20 in Calm     91% 0.00 in 0.0 W/m2 CLR
07:03 39.6 °F 37.2 °F 30.20 in Calm     91% 0.00 in 0.0 W/m2 CLR
07:08 39.6 °F 37.2 °F 30.20 in Calm     91% 0.00 in 0.0 W/m2 CLR
07:13 39.6 °F 37.2 °F 30.20 in Calm     91% 0.00 in 0.0 W/m2 CLR
07:18 39.6 °F 37.2 °F 30.20 in Calm     91% 0.00 in 0.0 W/m2 CLR
07:23 39.7 °F 37.3 °F 30.20 in Calm     91% 0.00 in 0.0 W/m2 CLR
07:28 39.7 °F 37.3 °F 30.20 in Calm     91% 0.00 in 0.0 W/m2 CLR
07:33 39.7 °F 37.3 °F 30.20 in Calm     91% 0.00 in 0.0 W/m2 CLR
07:39 39.7 °F 37.3 °F 30.20 in Calm     91% 0.00 in 0.0 W/m2 CLR
07:44 39.9 °F 37.5 °F 30.20 in Calm     91% 0.00 in 0.0 W/m2 CLR
07:49 39.9 °F 37.5 °F 30.21 in Calm     91% 0.00 in 0.0 W/m2 CLR
07:54 39.9 °F 37.5 °F 30.21 in Calm     91% 0.00 in 0.0 W/m2 CLR
07:59 40.1 °F 37.7 °F 30.21 in Calm     91% 0.00 in 0.0 W/m2 CLR
08:09 40.6 °F 38.2 °F 30.21 in Calm     91% 0.00 in 0.0 W/m2 CLR
08:14 40.8 °F 38.4 °F 30.20 in Calm     91% 0.00 in 0.0 W/m2 CLR
08:19 41.2 °F 38.8 °F 30.21 in Calm     91% 0.00 in 0.0 W/m2 CLR
08:24 41.4 °F 38.9 °F 30.21 in Calm     91% 0.00 in 0.0 W/m2 CLR
08:29 41.5 °F 39.1 °F 30.20 in Calm     91% 0.00 in 0.0 W/m2 CLR
08:34 41.5 °F 39.1 °F 30.21 in Calm     91% 0.00 in 0.0 W/m2 CLR
08:39 41.7 °F 39.3 °F 30.21 in Calm     91% 0.00 in 0.0 W/m2 CLR
08:49 42.4 °F 40.0 °F 30.20 in Calm     91% 0.00 in 0.0 W/m2 CLR
08:54 42.6 °F 40.2 °F 30.20 in Calm     91% 0.00 in 0.0 W/m2 CLR
08:59 43.0 °F 40.5 °F 30.21 in Calm     91% 0.00 in 0.0 W/m2 CLR
09:04 43.3 °F 40.6 °F 30.20 in Calm     90% 0.00 in 0.0 W/m2 CLR
09:09 43.7 °F 41.0 °F 30.20 in Calm     90% 0.00 in 0.0 W/m2 CLR
09:14 44.2 °F 41.5 °F 30.20 in Calm     90% 0.00 in 0.0 W/m2 CLR
09:19 44.6 °F 41.8 °F 30.20 in Calm     90% 0.00 in 0.0 W/m2 CLR
09:24 45.1 °F 42.4 °F 30.20 in Calm     90% 0.00 in 0.0 W/m2 CLR
09:29 46.2 °F 43.2 °F 30.20 in ESE 3.1 mph 3.5 mph 89% 0.00 in 0.0 W/m2 CLR
09:34 46.9 °F 43.6 °F 30.20 in ESE 2.2 mph 2.3 mph 88% 0.00 in 0.0 W/m2 CLR
09:39 47.8 °F 44.5 °F 30.20 in ESE 3.4 mph 3.5 mph 88% 0.00 in 0.0 W/m2 CLR
09:44 48.4 °F 44.4 °F 30.20 in SSE 2.9 mph 4.6 mph 86% 0.00 in 0.0 W/m2 CLR
09:49 49.1 °F 44.5 °F 30.20 in SE 3.5 mph 5.1 mph 84% 0.00 in 0.0 W/m2 CLR
09:54 49.3 °F 44.6 °F 30.20 in SSE 3.6 mph 3.6 mph 84% 0.00 in 0.0 W/m2 CLR
09:59 50.4 °F 45.1 °F 30.20 in ESE 4.0 mph 8.1 mph 82% 0.00 in 0.0 W/m2 CLR
10:04 50.7 °F 45.1 °F 30.20 in Calm   4.6 mph 81% 0.00 in 0.0 W/m2 CLR
10:09 51.1 °F 45.1 °F 30.20 in SE 4.9 mph 6.9 mph 80% 0.00 in 0.0 W/m2 CLR
10:14 51.6 °F 45.0 °F 30.20 in SSE 4.1 mph 6.9 mph 78% 0.00 in 0.0 W/m2 CLR
10:19 52.0 °F 45.3 °F 30.20 in SE 3.8 mph 4.6 mph 78% 0.00 in 0.0 W/m2 CLR
10:24 52.5 °F 45.5 °F 30.19 in Calm     77% 0.00 in 0.0 W/m2 CLR
10:29 53.4 °F 46.0 °F 30.19 in SE 2.7 mph 5.8 mph 76% 0.00 in 0.0 W/m2 CLR
10:34 54.1 °F 46.7 °F 30.19 in East 4.9 mph   76% 0.00 in 0.0 W/m2 CLR
10:39 54.1 °F 44.9 °F 30.20 in Calm   6.9 mph 71% 0.00 in 0.0 W/m2 CLR
10:44 54.7 °F 45.8 °F 30.20 in East 2.3 mph 3.5 mph 72% 0.00 in 0.0 W/m2 CLR
10:49 55.0 °F 46.2 °F 30.20 in ESE 5.8 mph 5.8 mph 72% 0.00 in 0.0 W/m2 CLR
10:54 55.8 °F 46.5 °F 30.19 in Calm     71% 0.00 in 0.0 W/m2 CLR
10:59 56.1 °F 46.5 °F 30.20 in Calm     70% 0.00 in 0.0 W/m2 CLR
11:04 56.3 °F 46.6 °F 30.19 in Calm     70% 0.00 in 0.0 W/m2 CLR
11:09 56.7 °F 45.8 °F 30.19 in ENE 3.1 mph 3.5 mph 67% 0.00 in 0.0 W/m2 CLR
11:14 56.1 °F 44.5 °F 30.19 in East 1.0 mph 3.5 mph 65% 0.00 in 0.0 W/m2 CLR
11:19 56.1 °F 43.3 °F 30.18 in Calm     62% 0.00 in 0.0 W/m2 CLR
11:24 56.8 °F 44.0 °F 30.18 in Calm     62% 0.00 in 0.0 W/m2 CLR
11:29 56.1 °F 42.4 °F 30.18 in Calm     60% 0.00 in 0.0 W/m2 CLR
11:34 56.5 °F 43.6 °F 30.18 in NNE 6.9 mph 6.9 mph 62% 0.00 in 0.0 W/m2 CLR
11:39 57.0 °F 44.1 °F 30.17 in Calm     62% 0.00 in 0.0 W/m2 CLR
11:44 56.8 °F 42.7 °F 30.17 in Calm     59% 0.00 in 0.0 W/m2 CLR
11:49 57.0 °F 42.8 °F 30.18 in WNW 7.2 mph 7.2 mph 59% 0.00 in 0.0 W/m2 CLR
11:54 57.0 °F 43.3 °F 30.18 in NNE 7.2 mph 8.1 mph 60% 0.00 in 0.0 W/m2 CLR
11:59 57.7 °F 43.1 °F 30.18 in WNW 2.5 mph 3.5 mph 58% 0.00 in 0.0 W/m2 CLR
12:00 57.7 °F 43.5 °F 30.18 in North 2.0 mph 3.0 mph 59% 0.00 in 0.0 W/m2 CLR
12:05 57.4 °F 43.2 °F 30.17 in Calm     59% 0.00 in 0.0 W/m2 CLR
12:10 57.7 °F 43.9 °F 30.17 in Calm     60% 0.00 in 0.0 W/m2 CLR
12:15 57.9 °F 43.2 °F 30.17 in West 2.0 mph 5.0 mph 58% 0.00 in 0.0 W/m2 CLR
12:25 58.1 °F 43.4 °F 30.17 in SSW 7.8 mph 8.1 mph 58% 0.00 in 0.0 W/m2 CLR
12:29 59.0 °F 44.7 °F 30.17 in Calm     59% 0.00 in 0.0 W/m2 CLR
12:34 59.5 °F 44.3 °F 30.17 in Calm     57% 0.00 in 0.0 W/m2 CLR
12:39 59.5 °F 44.7 °F 30.17 in Calm     58% 0.00 in 0.0 W/m2 CLR
12:44 59.9 °F 44.6 °F 30.16 in SW 5.8 mph 5.8 mph 57% 0.00 in 0.0 W/m2 CLR
12:49 59.4 °F 44.1 °F 30.16 in SE 6.0 mph 6.0 mph 57% 0.00 in 0.0 W/m2 CLR
12:54 59.2 °F 43.9 °F 30.16 in SSE 0.4 mph   57% 0.00 in 0.0 W/m2 CLR
12:59 59.4 °F 44.1 °F 30.16 in Calm   4.6 mph 57% 0.00 in 0.0 W/m2 CLR
13:04 59.4 °F 44.1 °F 30.16 in Calm   3.5 mph 57% 0.00 in 0.0 W/m2 SCT
13:09 58.8 °F 43.6 °F 30.16 in Calm     57% 0.00 in 0.0 W/m2 SCT
13:15 58.6 °F 43.0 °F 30.16 in Calm     56% 0.00 in 0.0 W/m2 SCT
13:20 58.3 °F 43.1 °F 30.16 in Calm     57% 0.00 in 0.0 W/m2 SCT
13:25 58.3 °F 43.1 °F 30.16 in Calm     57% 0.00 in 0.0 W/m2 SCT
13:30 58.5 °F 43.3 °F 30.15 in Calm     57% 0.00 in 0.0 W/m2 SCT
13:35 58.6 °F 43.4 °F 30.16 in Calm     57% 0.00 in 0.0 W/m2 SCT
13:40 58.5 °F 43.3 °F 30.15 in Calm     57% 0.00 in 0.0 W/m2 SCT
13:45 58.5 °F 43.7 °F 30.16 in Calm     58% 0.00 in 0.0 W/m2 SCT
13:50 58.8 °F 44.1 °F 30.16 in Calm     58% 0.00 in 0.0 W/m2 SCT
13:55 60.4 °F 45.5 °F 30.15 in SE 3.0 mph 8.0 mph 58% 0.00 in 0.0 W/m2 SCT
14:00 60.4 °F 45.1 °F 30.15 in ESE 6.0 mph 8.0 mph 57% 0.00 in 0.0 W/m2 SCT
14:05 59.5 °F 45.2 °F 30.15 in SSE 5.8 mph 5.8 mph 59% 0.00 in 0.0 W/m2 CLR
14:10 58.8 °F 44.1 °F 30.16 in Calm     58% 0.00 in 0.0 W/m2 CLR
Fernwood Weather
Compliments of Weather Underground - 3.25 mb